»·PEaware :: N6870P KSBA-KBUR

N6870P :: KSBA-KBUR

FLIGHT INFORMATION

Flight Status: Arrived
Operator: Privately registered:
United States
More flights under this callsign
Pilot: Larry J. (31147)
Aircraft: PIPER PA-24 COMMANCHE
(PA24)
More flights by this aircraft type
Origin: KSBA Santa Barbara Mun
United States
Destination: KBUR Bob Hope-Burbank
United States
More flights between these airports :: More routes between these airports
Route: KSBA FIM KBUR
File this flight plan on PilotEdge
Remarks:
Altitude:
(Current/Filed)
7,500ft
Speed:
(Current/Filed)
160kts
Departed: 24-Sep-20 07:40 AM
Arrived: 24-Sep-20 08:21 AM
Distance/Time
Traveled:
75nm/0:41
Distance/Time
To Go:
Arrived

Flight Plot

Page will automatically refresh every two minutes.


Map Options




Map Legend


Flown Route
Filed Route
Departure Airport
Arrival Airport
Navaid (VOR, NDB)
Fix

Horizontal Profiles

Position Reports

Time Latitude Longitude Heading Altitude Ground
Speed
24-Sep-20 07:24 34.430187 -119.843170 81 12ft 0kts
24-Sep-20 07:25 34.430187 -119.843170 81 12ft 0kts
24-Sep-20 07:26 34.430187 -119.843170 81 12ft 0kts
24-Sep-20 07:27 34.430187 -119.843170 81 12ft 0kts
24-Sep-20 07:28 34.430187 -119.843170 81 12ft 0kts
24-Sep-20 07:29 34.430187 -119.843170 81 12ft 0kts
24-Sep-20 07:30 34.430187 -119.843170 81 12ft 0kts
24-Sep-20 07:31 34.430187 -119.843170 81 12ft 0kts
24-Sep-20 07:32 34.429738 -119.842621 94 12ft 4kts
24-Sep-20 07:33 34.429800 -119.842116 63 12ft 0kts
24-Sep-20 07:34 34.429800 -119.842116 63 12ft 0kts
24-Sep-20 07:35 34.429800 -119.842116 63 12ft 0kts
24-Sep-20 07:36 34.429800 -119.842116 63 12ft 0kts
24-Sep-20 07:37 34.429800 -119.842116 63 12ft 0kts
24-Sep-20 07:38 34.429861 -119.841995 54 12ft 5kts
24-Sep-20 07:39 34.421912 -119.839212 168 83ft 98kts
24-Sep-20 07:40 34.393583 -119.831200 165 1085ft 108kts
24-Sep-20 07:41 34.376034 -119.807820 53 1710ft 118kts
24-Sep-20 07:42 34.393044 -119.774407 99 1993ft 145kts
24-Sep-20 07:43 34.383689 -119.724237 100 1991ft 156kts
24-Sep-20 07:44 34.383324 -119.672570 93 2355ft 156kts
24-Sep-20 07:45 34.379521 -119.621938 90 3626ft 141kts
24-Sep-20 07:46 34.378106 -119.577879 90 5173ft 122kts
24-Sep-20 07:47 34.377006 -119.540520 88 6725ft 101kts
24-Sep-20 07:48 34.376145 -119.503899 89 7514ft 142kts
24-Sep-20 07:49 34.374651 -119.449233 90 7500ft 173kts
24-Sep-20 07:50 34.372998 -119.390209 90 7499ft 176kts
24-Sep-20 07:51 34.371332 -119.330538 90 7499ft 171kts
24-Sep-20 07:52 34.369481 -119.278033 90 7498ft 151kts
24-Sep-20 07:53 34.368170 -119.224121 90 7500ft 166kts
24-Sep-20 07:54 34.366802 -119.167947 91 7498ft 166kts
24-Sep-20 07:55 34.365105 -119.112573 91 7498ft 164kts
24-Sep-20 07:56 34.363399 -119.057338 91 7499ft 163kts
24-Sep-20 07:57 34.361673 -119.002383 91 7499ft 163kts
24-Sep-20 07:58 34.359741 -118.947251 91 7499ft 163kts
24-Sep-20 07:59 34.357597 -118.892148 90 7499ft 163kts
24-Sep-20 08:00 34.336680 -118.846235 124 7050ft 137kts
24-Sep-20 08:01 34.318901 -118.814685 122 6301ft 108kts
24-Sep-20 08:02 34.301665 -118.784653 123 5518ft 110kts
24-Sep-20 08:03 34.289433 -118.763463 123 4958ft 110kts
24-Sep-20 08:04 34.271209 -118.731786 123 4158ft 116kts
24-Sep-20 08:05 34.253024 -118.700298 123 3594ft 104kts
24-Sep-20 08:06 34.237558 -118.673521 122 3598ft 94kts
24-Sep-20 08:07 34.221287 -118.645197 122 3600ft 106kts
24-Sep-20 08:08 34.204207 -118.615487 122 3599ft 107kts
24-Sep-20 08:10 34.201406 -118.580253 89 3598ft 107kts
24-Sep-20 08:11 34.204351 -118.545173 67 3730ft 97kts
24-Sep-20 08:12 34.213335 -118.515151 67 4050ft 94kts
24-Sep-20 08:13 34.221844 -118.485291 69 4340ft 94kts
24-Sep-20 08:14 34.227139 -118.453215 85 4382ft 111kts
24-Sep-20 08:15 34.232414 -118.412947 64 3729ft 114kts
24-Sep-20 08:16 34.240671 -118.422745 59 2009ft 108kts
24-Sep-20 08:17 34.239863 -118.403959 315 1491ft 81kts
24-Sep-20 08:18 34.242093 -118.397475 125 1243ft 91kts
24-Sep-20 08:19 34.230349 -118.369614 130 1334ft 108kts
24-Sep-20 08:20 34.206640 -118.358857 165 741ft 65kts
24-Sep-20 08:21 34.198543 -118.357894 199 711ft 5kts
24-Sep-20 08:22 34.199116 -118.358019 358 713ft 16kts

Navigation Log

Ident Type
Flight plan parsing failed, navigation log unavailable